Oakfield, Tennessee
Current Conditions -  °F | °C
As of 3:53 PM on Saturday 25 Oct 2014 (Local Time) from KMKL Reporting Station
Clear Clear  
Wind Chill: 27°   Ceiling: Unl
Heat Index: 28°   Visibility: 10mi
Dew Point: 17°   Wind: 8mph
Humidity: 54%   Direction: 230°SW
Pressure: 30.01"   Gusts: NA
Location:  35.72°N, 88.8°W
Report Text: KMKL 252053Z 23007KT 10SM CLR 27/17 A3001 RMK AO2 SLP161 T02720172 56013
Loading
Personal Weather Stations






























Interactive Weather Map
Tropical Storm Tracking
New forecast layout! Learn more

10-Day Weather Forecast

Advertisements
Track Severe Weather on mobile